Time;durP1;ratioP1;P1;durP2;ratioP2;P2;SDS_P1;SDS_P2;PMS_P1;PMS_P2;Temp;Humidity;BMP_temperature;BMP_pressure;BME280_temperature;BME280_humidity;BME280_pressure;Samples;Min_cycle;Max_cycle;Signal;HPM_P1;HPM_P2
2021/12/16 00:03:57;;;;;;;;;11.00;8.75;;;;;;;;5141050;27;11350;-73
2021/12/16 00:09:03;;;;;;;;;11.00;9.50;;;;;;;;5141082;27;11363;-74
2021/12/16 00:31:03;;;;;;;;;6.00;6.00;;;;;;;;5140960;27;11338;-74
2021/12/16 00:33:38;;;;;;;;;4.75;4.00;;;;;;;;5141245;27;11356;-73
2021/12/16 00:36:04;;;;;;;;;2.00;2.00;;;;;;;;5141069;27;11378;-74
2021/12/16 00:38:29;;;;;;;;;1.25;1.00;;;;;;;;5140575;27;11303;-74
2021/12/16 00:40:56;;;;;;;;;1.00;1.00;;;;;;;;5140941;27;11428;-74
2021/12/16 00:43:40;;;;;;;;;1.00;1.00;;;;;;;;5141231;27;8783;-73
2021/12/16 00:49:22;;;;;;;;;5.00;4.00;;;;;;;;5140915;27;11331;-74
2021/12/16 00:54:11;;;;;;;;;2.00;2.00;;;;;;;;5140900;27;11508;-73
2021/12/16 00:56:38;;;;;;;;;2.00;2.00;;;;;;;;5140906;27;11552;-73
2021/12/16 00:59:06;;;;;;;;;5.00;5.00;;;;;;;;5140772;27;12332;-73
2021/12/16 01:35:01;;;;;;;;;2.00;2.00;;;;;;;;5141116;27;11364;-74
2021/12/16 01:40:03;;;;;;;;;2.50;1.50;;;;;;;;5140373;27;11344;-74
2021/12/16 01:50:13;;;;;;;;;4.75;4.00;;;;;;;;5143437;27;11351;-75
2021/12/16 01:53:07;;;;;;;;;4.00;4.00;;;;;;;;5124688;27;11782;-74
2021/12/16 01:55:44;;;;;;;;;4.00;2.00;;;;;;;;5142760;27;12202;-74
2021/12/16 01:58:22;;;;;;;;;2.00;2.00;;;;;;;;5144298;27;11522;-74
2021/12/16 02:01:12;;;;;;;;;4.50;2.00;;;;;;;;5143760;27;11379;-74
2021/12/16 02:03:46;;;;;;;;;1.00;1.00;;;;;;;;5143226;27;11539;-75
2021/12/16 02:09:35;;;;;;;;;2.00;2.00;;;;;;;;5142615;27;11363;-74
2021/12/16 02:36:27;;;;;;;;;4.00;2.00;;;;;;;;5142892;27;12675;-72
2021/12/16 02:38:59;;;;;;;;;4.00;4.00;;;;;;;;5143124;27;8752;-73
2021/12/16 02:41:25;;;;;;;;;5.00;5.00;;;;;;;;5143482;27;11355;-73
2021/12/16 02:44:14;;;;;;;;;5.00;4.50;;;;;;;;5143087;27;11447;-72
2021/12/16 02:49:24;;;;;;;;;2.00;2.00;;;;;;;;5143272;27;12440;-73
2021/12/16 02:51:51;;;;;;;;;3.50;3.50;;;;;;;;5143111;27;11473;-73
2021/12/16 02:54:17;;;;;;;;;4.00;4.00;;;;;;;;5141857;27;11556;-73
2021/12/16 02:56:42;;;;;;;;;4.25;4.25;;;;;;;;5142662;27;11399;-72
2021/12/16 02:59:08;;;;;;;;;2.00;2.00;;;;;;;;5142112;27;8798;-74
2021/12/16 03:01:39;;;;;;;;;5.00;4.50;;;;;;;;5142301;27;12509;-73
2021/12/16 03:04:06;;;;;;;;;3.50;2.00;;;;;;;;5142659;27;12465;-73
2021/12/16 03:06:33;;;;;;;;;1.75;1.75;;;;;;;;5123702;27;14323;-73
2021/12/16 03:08:59;;;;;;;;;7.25;1.75;;;;;;;;5141668;27;11514;-73
2021/12/16 03:17:32;;;;;;;;;3.50;2.00;;;;;;;;5127907;27;12260;-74
2021/12/16 03:22:17;;;;;;;;;2.50;2.50;;;;;;;;5141686;27;11326;-74
2021/12/16 03:25:13;;;;;;;;;2.00;1.25;;;;;;;;5141844;27;10371;-74
2021/12/16 03:37:50;;;;;;;;;2.67;1.00;;;;;;;;5112166;27;10385;-75
2021/12/16 03:40:15;;;;;;;;;2.00;2.00;;;;;;;;5142733;27;11603;-76
2021/12/16 03:42:46;;;;;;;;;1.00;1.00;;;;;;;;5141857;27;11359;-75
2021/12/16 03:48:02;;;;;;;;;1.00;1.00;;;;;;;;5142445;27;11339;-76
2021/12/16 03:50:27;;;;;;;;;0.00;0.00;;;;;;;;5141461;27;11357;-76
2021/12/16 03:52:53;;;;;;;;;3.67;2.00;;;;;;;;5141846;27;11390;-76
2021/12/16 03:55:19;;;;;;;;;2.00;1.25;;;;;;;;5141793;27;10856;-75
2021/12/16 03:57:44;;;;;;;;;2.00;2.00;;;;;;;;5142011;27;11627;-75
2021/12/16 04:00:13;;;;;;;;;1.00;1.00;;;;;;;;5141687;27;11379;-76
2021/12/16 04:02:39;;;;;;;;;1.00;1.00;;;;;;;;5123142;27;9819;-75
2021/12/16 04:05:05;;;;;;;;;4.33;1.33;;;;;;;;5141572;27;11378;-75
2021/12/16 04:07:32;;;;;;;;;2.00;2.00;;;;;;;;5141358;27;11609;-75
2021/12/16 04:09:58;;;;;;;;;2.00;1.00;;;;;;;;5123391;27;12233;-74
2021/12/16 04:12:26;;;;;;;;;1.00;1.00;;;;;;;;5141930;27;11357;-74
2021/12/16 04:14:53;;;;;;;;;2.00;2.00;;;;;;;;5141173;27;11469;-74
2021/12/16 04:17:20;;;;;;;;;2.00;2.00;;;;;;;;5141691;27;11436;-74
2021/12/16 04:19:46;;;;;;;;;2.67;1.33;;;;;;;;5141146;27;11340;-74
2021/12/16 04:22:16;;;;;;;;;2.00;2.00;;;;;;;;5141353;27;11388;-74
2021/12/16 04:24:42;;;;;;;;;4.33;3.33;;;;;;;;5122174;27;10773;-74
2021/12/16 04:27:08;;;;;;;;;4.00;2.00;;;;;;;;5141124;27;11352;-74
2021/12/16 04:29:34;;;;;;;;;1.00;1.00;;;;;;;;5141696;27;10360;-74
2021/12/16 04:32:00;;;;;;;;;2.00;1.67;;;;;;;;5140876;27;11500;-75
2021/12/16 04:34:26;;;;;;;;;2.00;2.00;;;;;;;;5140832;27;12530;-74
2021/12/16 04:36:51;;;;;;;;;2.00;2.00;;;;;;;;5141251;27;9379;-75
2021/12/16 04:39:18;;;;;;;;;2.67;1.67;;;;;;;;5141038;27;8787;-74
2021/12/16 04:41:44;;;;;;;;;2.67;1.67;;;;;;;;5141671;27;10327;-75
2021/12/16 04:44:10;;;;;;;;;4.00;2.00;;;;;;;;5141137;27;12187;-75
2021/12/16 04:46:36;;;;;;;;;2.00;2.00;;;;;;;;5141054;27;13055;-74
2021/12/16 04:49:04;;;;;;;;;1.67;1.00;;;;;;;;5140516;27;11356;-74
2021/12/16 04:51:32;;;;;;;;;2.33;1.00;;;;;;;;5141192;27;10562;-74
2021/12/16 04:53:57;;;;;;;;;4.67;2.00;;;;;;;;5140759;27;11371;-75
2021/12/16 04:56:23;;;;;;;;;1.67;1.33;;;;;;;;5141426;27;11392;-75
2021/12/16 04:58:49;;;;;;;;;2.00;2.00;;;;;;;;5141134;27;11845;-75
2021/12/16 05:01:15;;;;;;;;;4.33;4.00;;;;;;;;5140424;27;11862;-75
2021/12/16 05:03:40;;;;;;;;;2.00;2.00;;;;;;;;5140705;27;11406;-75
2021/12/16 05:06:06;;;;;;;;;2.67;2.67;;;;;;;;5140555;27;11466;-75
2021/12/16 05:08:32;;;;;;;;;4.33;4.33;;;;;;;;5140812;27;9102;-75
2021/12/16 05:11:00;;;;;;;;;5.67;5.00;;;;;;;;5141633;27;11950;-74
2021/12/16 05:13:27;;;;;;;;;5.67;4.00;;;;;;;;5140020;27;11560;-76
2021/12/16 05:15:53;;;;;;;;;5.00;5.00;;;;;;;;5142201;27;12145;-76
2021/12/16 05:18:23;;;;;;;;;10.00;8.33;;;;;;;;5144611;27;11422;-75
2021/12/16 05:20:49;;;;;;;;;2.00;2.00;;;;;;;;5143604;27;22644;-75
2021/12/16 05:28:40;;;;;;;;;7.00;4.00;;;;;;;;5144200;27;11323;-76
2021/12/16 05:31:06;;;;;;;;;7.67;6.33;;;;;;;;5125520;27;11388;-77
2021/12/16 05:33:32;;;;;;;;;1.00;1.00;;;;;;;;5145335;27;11491;-76
2021/12/16 05:35:57;;;;;;;;;4.00;2.67;;;;;;;;5144968;27;11468;-76
2021/12/16 05:38:23;;;;;;;;;2.00;2.00;;;;;;;;5144332;27;11345;-76
2021/12/16 05:40:48;;;;;;;;;1.00;1.00;;;;;;;;5144324;27;12999;-76
2021/12/16 05:43:16;;;;;;;;;2.00;1.00;;;;;;;;5144213;27;8780;-76
2021/12/16 05:45:41;;;;;;;;;5.00;5.00;;;;;;;;5144288;27;8767;-76
2021/12/16 05:48:08;;;;;;;;;4.00;4.00;;;;;;;;5143849;27;8968;-76
2021/12/16 05:50:34;;;;;;;;;4.00;4.00;;;;;;;;5144306;27;8795;-75
2021/12/16 05:53:00;;;;;;;;;2.00;2.00;;;;;;;;5144643;27;8760;-75
2021/12/16 05:55:25;;;;;;;;;4.00;4.00;;;;;;;;5142524;27;8788;-76
2021/12/16 05:57:51;;;;;;;;;2.00;2.00;;;;;;;;5143450;27;10021;-75
2021/12/16 06:00:21;;;;;;;;;4.00;4.00;;;;;;;;5143725;27;9918;-75
2021/12/16 06:02:46;;;;;;;;;2.67;2.00;;;;;;;;5143162;27;9324;-75
2021/12/16 06:05:12;;;;;;;;;4.67;4.67;;;;;;;;5124645;27;10787;-74
2021/12/16 06:07:37;;;;;;;;;4.67;2.00;;;;;;;;5143420;27;11447;-71
2021/12/16 06:10:03;;;;;;;;;4.00;4.00;;;;;;;;5143520;27;8796;-71
2021/12/16 06:12:29;;;;;;;;;2.00;2.00;;;;;;;;5143095;27;9750;-72
2021/12/16 06:28:17;;;;;;;;;5.33;2.00;;;;;;;;5137821;27;9534;-73
2021/12/16 06:30:43;;;;;;;;;4.33;2.00;;;;;;;;5140519;27;9903;-74
2021/12/16 06:33:10;;;;;;;;;1.67;1.67;;;;;;;;5139891;27;9334;-73
2021/12/16 06:35:36;;;;;;;;;2.00;2.00;;;;;;;;5121627;27;11822;-75
2021/12/16 06:38:01;;;;;;;;;6.33;3.33;;;;;;;;5139954;27;11288;-74
2021/12/16 06:40:27;;;;;;;;;2.00;2.00;;;;;;;;5141495;27;11719;-77
2021/12/16 06:42:55;;;;;;;;;1.67;1.67;;;;;;;;5141772;27;11302;-75
2021/12/16 06:45:26;;;;;;;;;1.00;1.00;;;;;;;;5143016;27;11519;-74
2021/12/16 06:47:54;;;;;;;;;1.00;1.00;;;;;;;;5143082;27;8775;-76
2021/12/16 06:50:37;;;;;;;;;1.00;1.00;;;;;;;;5143842;27;8780;-75
2021/12/16 06:53:04;;;;;;;;;2.00;1.00;;;;;;;;5139611;27;8824;-72
2021/12/16 06:55:49;;;;;;;;;1.00;1.00;;;;;;;;5141118;27;8792;-75
2021/12/16 06:58:26;;;;;;;;;1.00;1.00;;;;;;;;5140497;27;9511;-73
2021/12/16 07:01:02;;;;;;;;;0.67;0.67;;;;;;;;5139719;27;8856;-73
2021/12/16 07:03:34;;;;;;;;;4.00;2.00;;;;;;;;5139040;27;11581;-76
2021/12/16 07:05:59;;;;;;;;;2.00;2.00;;;;;;;;5140863;27;11498;-74
2021/12/16 07:08:25;;;;;;;;;2.00;0.67;;;;;;;;5140914;27;11514;-77
2021/12/16 07:10:52;;;;;;;;;2.00;1.00;;;;;;;;5141151;27;9163;-73
2021/12/16 07:13:28;;;;;;;;;4.00;1.00;;;;;;;;5141832;27;8884;-79
2021/12/16 07:15:53;;;;;;;;;2.50;2.50;;;;;;;;5129885;27;11528;-73
2021/12/16 07:18:18;;;;;;;;;2.50;2.50;;;;;;;;5141133;27;12193;-73
2021/12/16 07:20:44;;;;;;;;;4.75;2.00;;;;;;;;5139690;27;8830;-73
2021/12/16 07:23:10;;;;;;;;;4.50;3.00;;;;;;;;5141054;27;11299;-69
2021/12/16 07:25:35;;;;;;;;;3.50;1.50;;;;;;;;5140452;27;9536;-75
2021/12/16 07:28:04;;;;;;;;;1.00;1.00;;;;;;;;5140260;27;11456;-76
2021/12/16 07:30:29;;;;;;;;;4.00;4.00;;;;;;;;5140798;27;11837;-76
2021/12/16 07:32:54;;;;;;;;;1.75;1.75;;;;;;;;5140775;27;11384;-74
2021/12/16 07:35:21;;;;;;;;;2.00;2.00;;;;;;;;5140529;27;11502;-75
2021/12/16 07:37:49;;;;;;;;;3.00;3.00;;;;;;;;5140175;27;12829;-76
2021/12/16 07:40:16;;;;;;;;;3.00;2.50;;;;;;;;5140549;27;11442;-76
2021/12/16 07:45:37;;;;;;;;;6.00;3.00;;;;;;;;5131724;27;12396;-73
2021/12/16 07:48:03;;;;;;;;;4.00;4.00;;;;;;;;5142535;27;11431;-73
2021/12/16 07:50:29;;;;;;;;;3.50;2.00;;;;;;;;5141893;27;11356;-74
2021/12/16 07:52:54;;;;;;;;;4.50;4.50;;;;;;;;5142027;27;10326;-73
2021/12/16 07:55:20;;;;;;;;;6.00;4.25;;;;;;;;5141051;27;11662;-73
2021/12/16 07:57:45;;;;;;;;;4.25;4.25;;;;;;;;5141536;27;11547;-74
2021/12/16 08:00:17;;;;;;;;;2.50;1.00;;;;;;;;5141936;27;8807;-73
2021/12/16 08:02:43;;;;;;;;;5.75;5.00;;;;;;;;5142104;27;11424;-74
2021/12/16 08:05:10;;;;;;;;;5.00;4.50;;;;;;;;5141490;27;11906;-75
2021/12/16 08:07:36;;;;;;;;;3.00;3.00;;;;;;;;5141232;27;10511;-75
2021/12/16 08:10:03;;;;;;;;;2.00;2.00;;;;;;;;5140428;27;11380;-74
2021/12/16 08:12:28;;;;;;;;;3.50;3.50;;;;;;;;5141874;27;12317;-75
2021/12/16 08:14:54;;;;;;;;;4.50;4.00;;;;;;;;5141286;27;11513;-73
2021/12/16 08:17:19;;;;;;;;;8.00;2.00;;;;;;;;5141273;27;11451;-73
2021/12/16 08:19:45;;;;;;;;;3.25;1.75;;;;;;;;5141112;27;10456;-73
2021/12/16 08:22:11;;;;;;;;;2.00;2.00;;;;;;;;5141114;27;12448;-75
2021/12/16 08:24:37;;;;;;;;;2.50;2.50;;;;;;;;5140824;27;11401;-73
2021/12/16 08:27:02;;;;;;;;;5.00;2.00;;;;;;;;5140731;27;8852;-74
2021/12/16 08:29:27;;;;;;;;;3.00;3.00;;;;;;;;5141942;27;11689;-75
2021/12/16 08:31:53;;;;;;;;;4.00;4.00;;;;;;;;5141240;27;9201;-74
2021/12/16 08:34:18;;;;;;;;;1.25;0.00;;;;;;;;5141335;27;9149;-73
2021/12/16 08:36:44;;;;;;;;;3.00;3.00;;;;;;;;5141218;27;10423;-72
2021/12/16 08:39:09;;;;;;;;;4.25;3.50;;;;;;;;5121737;27;13763;-72
2021/12/16 08:41:38;;;;;;;;;2.00;2.00;;;;;;;;5141198;27;11297;-73
2021/12/16 08:44:03;;;;;;;;;5.00;2.00;;;;;;;;5141386;27;11751;-72
2021/12/16 08:46:30;;;;;;;;;4.75;4.25;;;;;;;;5141230;27;11364;-72
2021/12/16 08:48:56;;;;;;;;;3.75;3.75;;;;;;;;5141132;27;11402;-74
2021/12/16 08:51:23;;;;;;;;;12.75;11.00;;;;;;;;5140292;27;11382;-75
2021/12/16 08:53:50;;;;;;;;;8.75;8.00;;;;;;;;5140334;27;22312;-74
2021/12/16 08:56:15;;;;;;;;;7.50;6.25;;;;;;;;5141021;27;23420;-73
2021/12/16 08:58:41;;;;;;;;;4.00;4.00;;;;;;;;5140479;27;11792;-71
2021/12/16 09:01:11;;;;;;;;;6.00;6.00;;;;;;;;5139836;27;11353;-73
2021/12/16 09:03:36;;;;;;;;;8.25;6.75;;;;;;;;5137989;27;8865;-73
2021/12/16 09:06:02;;;;;;;;;2.00;2.00;;;;;;;;5139802;27;11359;-73
2021/12/16 09:08:28;;;;;;;;;8.00;4.00;;;;;;;;5119435;27;11958;-75
2021/12/16 09:10:53;;;;;;;;;8.00;6.50;;;;;;;;5140367;27;8905;-75
2021/12/16 09:13:19;;;;;;;;;8.00;6.00;;;;;;;;5139862;27;9567;-75
2021/12/16 09:15:48;;;;;;;;;10.00;8.00;;;;;;;;5140093;27;8812;-74
2021/12/16 09:18:14;;;;;;;;;6.75;5.25;;;;;;;;5139805;27;22077;-74
2021/12/16 09:20:40;;;;;;;;;7.50;4.00;;;;;;;;5139098;27;22156;-74
2021/12/16 09:23:06;;;;;;;;;7.00;4.00;;;;;;;;5140076;27;11466;-74
2021/12/16 09:25:32;;;;;;;;;7.00;6.00;;;;;;;;5139361;27;8796;-73
2021/12/16 09:27:57;;;;;;;;;8.50;7.00;;;;;;;;5140745;27;11425;-75
2021/12/16 09:30:25;;;;;;;;;8.00;6.50;;;;;;;;5140496;27;10487;-73
2021/12/16 09:32:52;;;;;;;;;3.50;3.00;;;;;;;;5139784;27;10340;-74
2021/12/16 09:35:19;;;;;;;;;5.50;4.00;;;;;;;;5139836;27;12689;-74
2021/12/16 09:37:44;;;;;;;;;3.00;3.00;;;;;;;;5139896;27;11361;-74
2021/12/16 09:40:11;;;;;;;;;4.50;3.00;;;;;;;;5139914;27;11341;-74
2021/12/16 09:42:37;;;;;;;;;3.00;3.00;;;;;;;;5139445;27;9056;-74
2021/12/16 09:45:04;;;;;;;;;4.00;3.50;;;;;;;;5140543;27;11470;-74
2021/12/16 09:47:29;;;;;;;;;3.00;3.00;;;;;;;;5120934;27;13591;-75
2021/12/16 09:49:55;;;;;;;;;2.50;2.50;;;;;;;;5121067;27;11955;-73
2021/12/16 09:52:20;;;;;;;;;3.00;3.00;;;;;;;;5139625;27;12619;-73
2021/12/16 09:54:46;;;;;;;;;2.25;2.25;;;;;;;;5139284;27;11362;-73
2021/12/16 09:57:12;;;;;;;;;5.00;3.00;;;;;;;;5139245;27;11607;-75
2021/12/16 09:59:37;;;;;;;;;4.75;4.00;;;;;;;;5140345;27;11407;-74
2021/12/16 10:02:08;;;;;;;;;2.25;2.25;;;;;;;;5141728;27;11913;-78
2021/12/16 10:04:35;;;;;;;;;4.00;2.75;;;;;;;;5124829;27;13472;-72
2021/12/16 10:07:03;;;;;;;;;3.50;2.00;;;;;;;;5142715;27;11487;-70
2021/12/16 10:09:29;;;;;;;;;3.00;3.00;;;;;;;;5143409;27;11379;-71
2021/12/16 10:11:56;;;;;;;;;2.50;2.00;;;;;;;;5142850;27;11403;-71
2021/12/16 10:19:38;;;;;;;;;4.25;2.50;;;;;;;;5142803;27;11494;-73
2021/12/16 10:22:22;;;;;;;;;2.25;2.00;;;;;;;;5142472;27;12846;-73
2021/12/16 10:24:49;;;;;;;;;3.00;2.00;;;;;;;;5122109;28;11636;-73
2021/12/16 10:27:16;;;;;;;;;3.00;2.00;;;;;;;;5132017;27;11337;-72
2021/12/16 10:29:46;;;;;;;;;1.00;1.00;;;;;;;;5123868;27;11429;-72
2021/12/16 10:32:30;;;;;;;;;2.50;1.50;;;;;;;;5142222;27;11386;-71
2021/12/16 10:35:00;;;;;;;;;2.00;2.00;;;;;;;;5138610;27;11433;-73
2021/12/16 10:37:33;;;;;;;;;2.00;2.00;;;;;;;;5141621;27;11422;-72
2021/12/16 10:40:17;;;;;;;;;2.00;2.00;;;;;;;;5140188;27;11439;-73
2021/12/16 10:42:43;;;;;;;;;2.50;2.50;;;;;;;;5132296;27;11500;-73
2021/12/16 10:45:23;;;;;;;;;2.50;1.75;;;;;;;;5141395;27;11480;-70
2021/12/16 10:48:07;;;;;;;;;1.00;0.00;;;;;;;;5141766;27;11316;-73
2021/12/16 10:50:52;;;;;;;;;1.75;1.75;;;;;;;;5137073;27;11383;-72
2021/12/16 10:53:36;;;;;;;;;1.00;1.00;;;;;;;;5142222;27;11391;-73
2021/12/16 10:56:02;;;;;;;;;1.00;1.00;;;;;;;;5124685;27;11704;-75
2021/12/16 10:58:46;;;;;;;;;2.00;2.00;;;;;;;;5143667;27;11433;-75
2021/12/16 11:01:30;;;;;;;;;2.50;2.50;;;;;;;;5142695;27;8762;-74
2021/12/16 11:03:56;;;;;;;;;1.00;1.00;;;;;;;;5142547;27;11372;-74
2021/12/16 11:06:27;;;;;;;;;2.00;2.00;;;;;;;;5142386;27;12123;-74
2021/12/16 11:08:52;;;;;;;;;1.50;1.50;;;;;;;;5142991;27;8787;-74
2021/12/16 11:11:26;;;;;;;;;3.00;1.75;;;;;;;;5143049;27;11284;-75
2021/12/16 11:14:00;;;;;;;;;2.00;2.00;;;;;;;;5142021;27;11380;-75
2021/12/16 11:16:31;;;;;;;;;2.00;2.00;;;;;;;;5123328;27;11943;-75
2021/12/16 11:18:56;;;;;;;;;1.00;1.00;;;;;;;;5123688;27;9801;-75
2021/12/16 11:21:21;;;;;;;;;1.00;1.00;;;;;;;;5142983;27;9416;-74
2021/12/16 11:23:50;;;;;;;;;2.00;2.00;;;;;;;;5143046;27;8918;-74
2021/12/16 11:26:25;;;;;;;;;3.25;2.50;;;;;;;;5141724;27;8890;-74
2021/12/16 11:28:52;;;;;;;;;0.25;0.25;;;;;;;;5141982;27;12897;-74
2021/12/16 11:31:18;;;;;;;;;0.00;0.00;;;;;;;;5142783;27;11375;-74
2021/12/16 11:33:49;;;;;;;;;0.75;0.75;;;;;;;;5142363;27;8849;-75
2021/12/16 11:36:25;;;;;;;;;0.25;0.25;;;;;;;;5142485;27;8775;-74
2021/12/16 11:39:01;;;;;;;;;1.25;1.25;;;;;;;;5142199;27;8771;-74
2021/12/16 11:41:29;;;;;;;;;1.00;1.00;;;;;;;;5142539;27;8798;-73
2021/12/16 11:43:56;;;;;;;;;2.75;2.00;;;;;;;;5123496;27;11633;-73
2021/12/16 11:46:24;;;;;;;;;1.75;1.75;;;;;;;;5142494;27;11537;-73
2021/12/16 11:48:51;;;;;;;;;1.50;1.50;;;;;;;;5142073;27;11474;-74
2021/12/16 11:51:21;;;;;;;;;1.00;1.00;;;;;;;;5142413;27;8880;-74
2021/12/16 11:53:50;;;;;;;;;1.00;1.00;;;;;;;;5141974;27;8800;-74
2021/12/16 11:56:16;;;;;;;;;2.00;2.00;;;;;;;;5141550;27;9214;-74
2021/12/16 11:58:43;;;;;;;;;2.00;2.00;;;;;;;;5142352;27;9444;-75
2021/12/16 12:01:10;;;;;;;;;2.00;2.00;;;;;;;;5141822;27;9610;-75
2021/12/16 12:03:35;;;;;;;;;2.50;2.00;;;;;;;;5141498;27;9731;-75
2021/12/16 12:06:00;;;;;;;;;2.50;2.25;;;;;;;;5141211;27;10742;-74
2021/12/16 12:08:28;;;;;;;;;3.25;2.00;;;;;;;;5142685;27;8876;-74
2021/12/16 12:11:02;;;;;;;;;2.00;2.00;;;;;;;;5141671;27;11381;-74
2021/12/16 12:13:27;;;;;;;;;2.50;2.50;;;;;;;;5141734;27;10229;-74
2021/12/16 12:16:13;;;;;;;;;1.00;1.00;;;;;;;;5141715;27;10459;-74
2021/12/16 12:18:57;;;;;;;;;1.00;1.00;;;;;;;;5140693;27;11421;-73
2021/12/16 12:21:32;;;;;;;;;2.75;1.50;;;;;;;;5141743;27;10279;-73
2021/12/16 12:24:03;;;;;;;;;2.50;2.50;;;;;;;;5140606;27;11639;-74
2021/12/16 12:26:30;;;;;;;;;2.50;1.25;;;;;;;;5139903;27;10439;-75
2021/12/16 12:29:01;;;;;;;;;2.25;2.00;;;;;;;;5139082;27;10531;-76
2021/12/16 12:31:28;;;;;;;;;0.50;0.50;;;;;;;;5127458;27;12637;-75
2021/12/16 12:33:54;;;;;;;;;4.50;2.00;;;;;;;;5139477;27;11391;-75
2021/12/16 12:36:19;;;;;;;;;2.50;1.25;;;;;;;;5141375;27;11391;-75
2021/12/16 12:38:45;;;;;;;;;2.00;2.00;;;;;;;;5139636;27;11508;-75
2021/12/16 12:41:10;;;;;;;;;2.50;2.00;;;;;;;;5140792;27;10446;-74
2021/12/16 12:43:37;;;;;;;;;2.75;2.00;;;;;;;;5141263;27;8776;-75
2021/12/16 12:46:05;;;;;;;;;2.00;2.00;;;;;;;;5141781;27;8791;-75
2021/12/16 12:48:32;;;;;;;;;2.00;2.00;;;;;;;;5139829;27;10991;-75
2021/12/16 12:50:58;;;;;;;;;2.00;2.00;;;;;;;;5141122;27;11115;-75
2021/12/16 12:53:26;;;;;;;;;2.00;2.00;;;;;;;;5139579;27;11143;-75
2021/12/16 12:55:56;;;;;;;;;1.25;1.25;;;;;;;;5140034;27;9477;-75
2021/12/16 12:58:22;;;;;;;;;2.75;2.75;;;;;;;;5137326;27;11456;-74
2021/12/16 13:00:56;;;;;;;;;3.50;2.25;;;;;;;;5128322;27;10974;-76
2021/12/16 13:03:30;;;;;;;;;2.00;2.00;;;;;;;;5122218;27;11152;-75
2021/12/16 13:05:58;;;;;;;;;2.00;2.00;;;;;;;;5140954;27;11396;-75
2021/12/16 13:08:28;;;;;;;;;1.00;1.00;;;;;;;;5140972;27;10933;-75
2021/12/16 13:10:56;;;;;;;;;2.00;2.00;;;;;;;;5140218;27;10947;-74
2021/12/16 13:15:54;;;;;;;;;1.50;1.50;;;;;;;;5139384;27;11812;-73
2021/12/16 13:24:13;;;;;;;;;2.00;1.00;;;;;;;;5139731;27;11306;-75
2021/12/16 13:26:48;;;;;;;;;1.00;1.00;;;;;;;;5139004;27;11348;-74
2021/12/16 13:29:53;;;;;;;;;1.00;1.00;;;;;;;;5139385;27;11271;-74
2021/12/16 13:32:15;;;;;;;;;1.00;1.00;;;;;;;;5140304;27;11571;-81
2021/12/16 13:34:59;;;;;;;;;2.50;2.00;;;;;;;;5122652;27;11300;-78
2021/12/16 13:37:30;;;;;;;;;2.75;1.00;;;;;;;;5141657;27;11265;-75
2021/12/16 13:40:00;;;;;;;;;1.75;1.75;;;;;;;;5143718;27;11457;-75
2021/12/16 13:42:38;;;;;;;;;2.00;2.00;;;;;;;;5144032;27;11409;-75
2021/12/16 13:45:10;;;;;;;;;1.00;1.00;;;;;;;;5144356;27;11444;-76
2021/12/16 14:04:41;;;;;;;;;1.00;1.00;;;;;;;;5141033;27;11273;-77
2021/12/16 14:10:03;;;;;;;;;2.00;2.00;;;;;;;;5140682;27;11429;-77
2021/12/16 14:23:08;;;;;;;;;1.00;1.00;;;;;;;;5140866;27;11309;-76
2021/12/16 14:41:12;;;;;;;;;2.00;2.00;;;;;;;;5142875;27;12113;-77
2021/12/16 14:43:51;;;;;;;;;2.00;2.00;;;;;;;;5142240;27;11381;-79
2021/12/16 14:46:22;;;;;;;;;2.00;2.00;;;;;;;;5124665;27;11328;-76
2021/12/16 14:48:48;;;;;;;;;2.00;2.00;;;;;;;;5140514;27;11309;-76
2021/12/16 14:51:15;;;;;;;;;2.00;2.00;;;;;;;;5143190;27;11416;-77
2021/12/16 14:53:45;;;;;;;;;1.75;1.25;;;;;;;;5143058;27;8874;-77
2021/12/16 14:56:17;;;;;;;;;3.00;3.00;;;;;;;;5142885;27;11479;-77
2021/12/16 14:58:43;;;;;;;;;1.50;1.50;;;;;;;;5142149;27;11609;-75
2021/12/16 15:01:12;;;;;;;;;2.25;2.00;;;;;;;;5136666;27;11381;-76
2021/12/16 15:03:39;;;;;;;;;2.00;1.00;;;;;;;;5142551;27;11595;-75
2021/12/16 15:06:07;;;;;;;;;3.50;3.00;;;;;;;;5143035;27;11356;-75
2021/12/16 15:08:57;;;;;;;;;2.25;2.25;;;;;;;;5142042;27;11338;-75
2021/12/16 15:11:32;;;;;;;;;2.00;2.00;;;;;;;;5141396;27;11812;-75
2021/12/16 15:14:03;;;;;;;;;2.00;2.00;;;;;;;;5124689;27;11349;-78
2021/12/16 15:16:51;;;;;;;;;2.00;2.00;;;;;;;;5143341;27;12338;-75
2021/12/16 15:36:15;;;;;;;;;3.00;2.00;;;;;;;;5142748;27;11301;-75
2021/12/16 15:38:46;;;;;;;;;2.25;2.00;;;;;;;;5141571;27;11370;-75
2021/12/16 15:43:57;;;;;;;;;2.00;2.00;;;;;;;;5142454;27;11281;-78
2021/12/16 15:46:26;;;;;;;;;3.00;3.00;;;;;;;;5142309;27;11341;-79
2021/12/16 15:48:52;;;;;;;;;5.00;3.50;;;;;;;;5133334;27;11430;-78
2021/12/16 15:51:20;;;;;;;;;3.75;2.00;;;;;;;;5142811;27;11508;-74
2021/12/16 15:53:52;;;;;;;;;3.00;3.00;;;;;;;;5141570;27;11639;-77
2021/12/16 15:56:17;;;;;;;;;2.00;2.00;;;;;;;;5142632;27;11475;-75
2021/12/16 15:58:45;;;;;;;;;4.75;2.50;;;;;;;;5139713;27;11488;-76
2021/12/16 16:01:16;;;;;;;;;6.00;6.00;;;;;;;;5141081;27;11548;-76
2021/12/16 17:18:18;;;;;;;;;7.75;7.75;;;;;;;;5217151;27;78997;-76
2021/12/16 17:20:43;;;;;;;;;3.75;2.75;;;;;;;;5200146;27;20921;-78
2021/12/16 17:23:13;;;;;;;;;2.25;2.25;;;;;;;;5199811;27;11469;-77
2021/12/16 17:25:38;;;;;;;;;2.75;2.75;;;;;;;;5199928;27;11079;-84
2021/12/16 17:28:04;;;;;;;;;3.75;3.00;;;;;;;;5200103;27;11431;-76
2021/12/16 17:30:30;;;;;;;;;3.00;2.00;;;;;;;;5199733;27;11589;-78
2021/12/16 17:32:57;;;;;;;;;4.50;3.25;;;;;;;;5199607;27;9796;-76
2021/12/16 17:35:31;;;;;;;;;4.50;3.00;;;;;;;;5199024;27;11581;-78
2021/12/16 17:38:00;;;;;;;;;2.00;2.00;;;;;;;;5199607;27;11543;-76
2021/12/16 17:40:37;;;;;;;;;2.75;2.75;;;;;;;;5197476;27;11460;-73
2021/12/16 17:43:06;;;;;;;;;8.00;8.00;;;;;;;;5176638;27;11468;-73
2021/12/16 17:45:42;;;;;;;;;3.25;3.25;;;;;;;;5196733;27;11553;-73
2021/12/16 17:48:09;;;;;;;;;3.25;3.25;;;;;;;;5197315;27;11433;-73
2021/12/16 17:50:42;;;;;;;;;4.00;2.75;;;;;;;;5200391;27;11436;-73
2021/12/16 17:53:08;;;;;;;;;3.00;3.00;;;;;;;;5179497;27;12553;-72
2021/12/16 17:55:42;;;;;;;;;3.00;2.00;;;;;;;;5199643;27;11541;-71
2021/12/16 17:58:10;;;;;;;;;3.75;3.75;;;;;;;;5199005;27;11640;-72
2021/12/16 18:00:42;;;;;;;;;3.25;3.25;;;;;;;;5198837;27;11448;-72
2021/12/16 18:03:12;;;;;;;;;5.25;4.00;;;;;;;;5198827;27;11505;-72
2021/12/16 18:05:41;;;;;;;;;3.75;3.75;;;;;;;;5199404;27;11515;-72
2021/12/16 18:08:06;;;;;;;;;3.50;3.25;;;;;;;;5199376;27;11451;-73
2021/12/16 18:10:32;;;;;;;;;4.00;4.00;;;;;;;;5199572;27;11409;-72
2021/12/16 18:12:57;;;;;;;;;5.25;5.00;;;;;;;;5198857;27;11440;-73
2021/12/16 18:15:24;;;;;;;;;3.50;3.50;;;;;;;;5179821;27;11073;-73
2021/12/16 18:17:55;;;;;;;;;4.00;4.00;;;;;;;;5198120;27;11382;-71
2021/12/16 18:20:29;;;;;;;;;7.75;7.00;;;;;;;;5180548;27;11811;-73
2021/12/16 18:22:57;;;;;;;;;9.00;8.50;;;;;;;;5198231;27;11447;-74
2021/12/16 18:25:27;;;;;;;;;8.00;7.00;;;;;;;;5198440;27;11473;-73
2021/12/16 18:28:03;;;;;;;;;4.50;4.00;;;;;;;;5193988;27;12576;-73
2021/12/16 18:30:33;;;;;;;;;3.50;3.50;;;;;;;;5184507;27;11436;-75
2021/12/16 18:33:00;;;;;;;;;5.00;5.00;;;;;;;;5184812;27;11501;-74
2021/12/16 18:35:28;;;;;;;;;2.00;2.00;;;;;;;;5184033;27;11632;-76
2021/12/16 18:37:54;;;;;;;;;2.75;2.00;;;;;;;;5184950;27;11583;-76
2021/12/16 18:40:20;;;;;;;;;3.00;3.00;;;;;;;;5185433;27;11512;-76
2021/12/16 18:42:46;;;;;;;;;5.00;5.00;;;;;;;;5184162;27;11518;-74
2021/12/16 18:45:13;;;;;;;;;9.50;8.50;;;;;;;;5183987;27;11423;-75
2021/12/16 18:47:57;;;;;;;;;11.75;11.00;;;;;;;;5183789;27;11386;-74
2021/12/16 18:55:48;;;;;;;;;5.75;5.75;;;;;;;;5183837;27;11427;-74
2021/12/16 18:58:13;;;;;;;;;7.25;7.25;;;;;;;;5183836;27;11551;-73
2021/12/16 19:00:42;;;;;;;;;6.75;4.75;;;;;;;;5183889;27;11565;-76
2021/12/16 19:03:07;;;;;;;;;11.50;7.00;;;;;;;;5184458;27;10791;-76
2021/12/16 19:05:33;;;;;;;;;12.00;9.75;;;;;;;;5182106;27;21535;-76
2021/12/16 19:07:59;;;;;;;;;12.75;11.00;;;;;;;;5177974;27;10568;-76
2021/12/16 19:10:27;;;;;;;;;12.75;12.00;;;;;;;;5182818;27;22568;-80
2021/12/16 19:12:53;;;;;;;;;16.00;15.00;;;;;;;;5182414;27;8830;-83
2021/12/16 19:15:24;;;;;;;;;17.25;17.25;;;;;;;;5167386;27;12862;-80
2021/12/16 19:17:51;;;;;;;;;18.25;14.75;;;;;;;;5184740;27;11700;-78
2021/12/16 19:20:18;;;;;;;;;22.00;21.25;;;;;;;;5184515;27;11481;-79
2021/12/16 19:22:44;;;;;;;;;25.25;23.75;;;;;;;;5183443;27;12869;-77
2021/12/16 19:25:10;;;;;;;;;24.25;23.75;;;;;;;;5182282;27;11613;-78
2021/12/16 19:27:35;;;;;;;;;20.75;19.75;;;;;;;;5177178;27;8831;-77
2021/12/16 19:30:01;;;;;;;;;22.00;20.75;;;;;;;;5165032;27;12210;-77
2021/12/16 19:32:27;;;;;;;;;27.00;21.75;;;;;;;;5183475;27;13287;-78
2021/12/16 19:34:53;;;;;;;;;21.50;20.50;;;;;;;;5183718;27;8894;-77
2021/12/16 19:37:19;;;;;;;;;26.00;25.00;;;;;;;;5183195;27;11495;-78
2021/12/16 19:39:45;;;;;;;;;28.00;26.00;;;;;;;;5181531;27;11607;-75
2021/12/16 19:42:10;;;;;;;;;23.75;20.00;;;;;;;;5182983;27;8911;-74
2021/12/16 19:44:36;;;;;;;;;15.00;15.00;;;;;;;;5183404;27;10625;-76
2021/12/16 19:47:02;;;;;;;;;16.00;14.75;;;;;;;;5182247;27;12172;-74
2021/12/16 19:49:27;;;;;;;;;23.75;20.75;;;;;;;;5164538;27;13438;-76
2021/12/16 19:51:55;;;;;;;;;21.00;19.00;;;;;;;;5183587;27;12207;-76
2021/12/16 19:54:21;;;;;;;;;13.75;13.75;;;;;;;;5183516;27;12775;-82
2021/12/16 19:56:47;;;;;;;;;13.50;9.25;;;;;;;;5182470;27;13537;-79
2021/12/16 19:59:13;;;;;;;;;13.00;13.00;;;;;;;;5183430;27;21911;-73